sensor_id;sensor_type;location;lat;lon;timestamp;pressure;altitude;pressure_sealevel;temperature;humidity
57668;BME280;43499;52.366;12.912;2024-03-29T00:00:29;99415.19;;;7.95;77.71
57668;BME280;43499;52.366;12.912;2024-03-29T00:01:30;99382.06;;;7.70;77.79
57668;BME280;43499;52.366;12.912;2024-03-29T00:02:31;99434.25;;;8.06;77.99
57668;BME280;43499;52.366;12.912;2024-03-29T00:03:32;99486.63;;;8.31;78.22
57668;BME280;43499;52.366;12.912;2024-03-29T00:04:33;99508.31;;;8.42;78.20
57668;BME280;43499;52.366;12.912;2024-03-29T00:05:34;99483.00;;;8.29;78.00
57668;BME280;43499;52.366;12.912;2024-03-29T00:06:35;99509.88;;;8.27;78.94
57668;BME280;43499;52.366;12.912;2024-03-29T00:07:36;99457.94;;;8.08;78.66
57668;BME280;43499;52.366;12.912;2024-03-29T00:08:37;99462.03;;;8.04;78.79
57668;BME280;43499;52.366;12.912;2024-03-29T00:09:38;99499.75;;;8.19;79.10
57668;BME280;43499;52.366;12.912;2024-03-29T00:10:39;99503.06;;;8.17;79.40
57668;BME280;43499;52.366;12.912;2024-03-29T00:11:40;99480.69;;;8.09;79.52
57668;BME280;43499;52.366;12.912;2024-03-29T00:12:41;99495.94;;;8.02;80.34
57668;BME280;43499;52.366;12.912;2024-03-29T00:13:42;99465.22;;;8.00;80.19
57668;BME280;43499;52.366;12.912;2024-03-29T00:14:43;99509.41;;;8.21;80.25
57668;BME280;43499;52.366;12.912;2024-03-29T00:15:47;99484.41;;;8.12;79.65
57668;BME280;43499;52.366;12.912;2024-03-29T00:16:48;99432.56;;;7.69;80.48
57668;BME280;43499;52.366;12.912;2024-03-29T00:17:49;99483.97;;;8.06;80.28
57668;BME280;43499;52.366;12.912;2024-03-29T00:18:52;99514.72;;;8.09;80.62
57668;BME280;43499;52.366;12.912;2024-03-29T00:19:53;99495.28;;;7.93;81.05
57668;BME280;43499;52.366;12.912;2024-03-29T00:20:54;99515.31;;;7.93;82.00
57668;BME280;43499;52.366;12.912;2024-03-29T00:21:55;99450.53;;;7.65;81.64
57668;BME280;43499;52.366;12.912;2024-03-29T00:22:56;99518.81;;;8.05;81.80
57668;BME280;43499;52.366;12.912;2024-03-29T00:23:57;99436.91;;;7.57;81.87
57668;BME280;43499;52.366;12.912;2024-03-29T00:24:58;99407.16;;;7.31;82.32
57668;BME280;43499;52.366;12.912;2024-03-29T00:25:59;99414.47;;;7.23;83.15
57668;BME280;43499;52.366;12.912;2024-03-29T00:27:00;99530.66;;;7.88;83.31
57668;BME280;43499;52.366;12.912;2024-03-29T00:28:02;99477.59;;;7.77;82.59
57668;BME280;43499;52.366;12.912;2024-03-29T00:29:04;99453.88;;;7.38;83.77
57668;BME280;43499;52.366;12.912;2024-03-29T00:30:05;99535.13;;;7.77;83.94
57668;BME280;43499;52.366;12.912;2024-03-29T00:31:08;99491.03;;;7.70;83.91
57668;BME280;43499;52.366;12.912;2024-03-29T00:32:09;99496.34;;;7.71;84.02
57668;BME280;43499;52.366;12.912;2024-03-29T00:33:10;99486.47;;;7.67;83.58
57668;BME280;43499;52.366;12.912;2024-03-29T00:34:11;99520.56;;;7.93;83.71
57668;BME280;43499;52.366;12.912;2024-03-29T00:35:13;99459.22;;;7.52;83.56
57668;BME280;43499;52.366;12.912;2024-03-29T00:36:15;99490.09;;;7.69;83.47
57668;BME280;43499;52.366;12.912;2024-03-29T00:37:16;99515.00;;;7.76;83.80
57668;BME280;43499;52.366;12.912;2024-03-29T00:38:17;99521.13;;;7.88;83.66
57668;BME280;43499;52.366;12.912;2024-03-29T00:39:18;99487.84;;;7.62;83.62
57668;BME280;43499;52.366;12.912;2024-03-29T00:40:19;99451.84;;;7.46;83.25
57668;BME280;43499;52.366;12.912;2024-03-29T00:41:20;99466.38;;;7.54;83.45
57668;BME280;43499;52.366;12.912;2024-03-29T00:42:21;99491.03;;;7.70;83.42
57668;BME280;43499;52.366;12.912;2024-03-29T00:43:22;99506.16;;;7.62;83.10
57668;BME280;43499;52.366;12.912;2024-03-29T00:44:23;99516.72;;;7.76;83.01
57668;BME280;43499;52.366;12.912;2024-03-29T00:45:24;99528.97;;;7.77;82.89
57668;BME280;43499;52.366;12.912;2024-03-29T00:46:26;99427.66;;;7.25;82.88
57668;BME280;43499;52.366;12.912;2024-03-29T00:47:27;99504.31;;;7.73;82.92
57668;BME280;43499;52.366;12.912;2024-03-29T00:48:28;99526.03;;;7.72;82.84
57668;BME280;43499;52.366;12.912;2024-03-29T00:49:29;99507.72;;;7.72;82.93
57668;BME280;43499;52.366;12.912;2024-03-29T00:50:30;99466.72;;;7.35;82.96
57668;BME280;43499;52.366;12.912;2024-03-29T00:51:31;99471.72;;;7.32;83.01
57668;BME280;43499;52.366;12.912;2024-03-29T00:52:32;99476.84;;;7.31;83.39
57668;BME280;43499;52.366;12.912;2024-03-29T00:53:33;99516.75;;;7.52;83.70
57668;BME280;43499;52.366;12.912;2024-03-29T00:54:34;99523.44;;;7.60;83.57
57668;BME280;43499;52.366;12.912;2024-03-29T00:55:35;99482.97;;;7.43;83.49
57668;BME280;43499;52.366;12.912;2024-03-29T00:56:36;99409.81;;;6.95;83.13
57668;BME280;43499;52.366;12.912;2024-03-29T00:57:37;99439.25;;;7.17;83.17
57668;BME280;43499;52.366;12.912;2024-03-29T00:58:38;99376.53;;;6.81;83.07
57668;BME280;43499;52.366;12.912;2024-03-29T00:59:39;99495.25;;;7.44;83.12
57668;BME280;43499;52.366;12.912;2024-03-29T01:00:40;99510.28;;;7.35;83.53
57668;BME280;43499;52.366;12.912;2024-03-29T01:01:42;99519.47;;;7.53;83.56
57668;BME280;43499;52.366;12.912;2024-03-29T01:02:43;99447.44;;;7.21;83.37
57668;BME280;43499;52.366;12.912;2024-03-29T01:03:44;99487.75;;;7.25;84.01
57668;BME280;43499;52.366;12.912;2024-03-29T01:04:45;99476.97;;;7.20;83.74
57668;BME280;43499;52.366;12.912;2024-03-29T01:05:46;99529.81;;;7.40;83.63
57668;BME280;43499;52.366;12.912;2024-03-29T01:06:47;99508.66;;;7.37;84.09
57668;BME280;43499;52.366;12.912;2024-03-29T01:07:48;99464.13;;;7.12;83.57
57668;BME280;43499;52.366;12.912;2024-03-29T01:08:49;99446.03;;;7.03;83.29
57668;BME280;43499;52.366;12.912;2024-03-29T01:09:51;99512.06;;;7.24;84.16
57668;BME280;43499;52.366;12.912;2024-03-29T01:10:52;99436.75;;;6.94;83.69
57668;BME280;43499;52.366;12.912;2024-03-29T01:11:53;99525.03;;;7.46;83.15
57668;BME280;43499;52.366;12.912;2024-03-29T01:12:54;99514.59;;;7.46;83.71
57668;BME280;43499;52.366;12.912;2024-03-29T01:13:55;99464.56;;;7.06;83.51
57668;BME280;43499;52.366;12.912;2024-03-29T01:14:57;99499.78;;;7.23;84.10
57668;BME280;43499;52.366;12.912;2024-03-29T01:15:58;99535.47;;;7.34;84.11
57668;BME280;43499;52.366;12.912;2024-03-29T01:16:59;99511.28;;;7.13;84.40
57668;BME280;43499;52.366;12.912;2024-03-29T01:18:00;99532.19;;;7.25;84.43
57668;BME280;43499;52.366;12.912;2024-03-29T01:19:01;99503.78;;;7.18;84.24
57668;BME280;43499;52.366;12.912;2024-03-29T01:20:02;99517.66;;;7.17;84.21
57668;BME280;43499;52.366;12.912;2024-03-29T01:21:03;99506.16;;;7.15;84.42
57668;BME280;43499;52.366;12.912;2024-03-29T01:22:04;99503.44;;;7.13;84.60
57668;BME280;43499;52.366;12.912;2024-03-29T01:23:05;99519.34;;;7.28;84.19
57668;BME280;43499;52.366;12.912;2024-03-29T01:24:06;99484.78;;;6.97;84.36
57668;BME280;43499;52.366;12.912;2024-03-29T01:25:07;99467.94;;;6.81;84.73
57668;BME280;43499;52.366;12.912;2024-03-29T01:26:10;99441.94;;;6.59;84.42
57668;BME280;43499;52.366;12.912;2024-03-29T01:27:15;99534.25;;;7.29;84.54
57668;BME280;43499;52.366;12.912;2024-03-29T01:28:16;99435.91;;;6.60;84.35
57668;BME280;43499;52.366;12.912;2024-03-29T01:29:17;99525.94;;;7.23;84.39
57668;BME280;43499;52.366;12.912;2024-03-29T01:30:18;99488.97;;;6.83;84.42
57668;BME280;43499;52.366;12.912;2024-03-29T01:31:19;99530.47;;;7.14;84.65
57668;BME280;43499;52.366;12.912;2024-03-29T01:32:20;99527.97;;;7.15;84.77
57668;BME280;43499;52.366;12.912;2024-03-29T01:33:21;99511.81;;;6.97;84.91
57668;BME280;43499;52.366;12.912;2024-03-29T01:34:22;99530.56;;;7.03;84.55
57668;BME280;43499;52.366;12.912;2024-03-29T01:35:23;99496.09;;;6.73;84.76
57668;BME280;43499;52.366;12.912;2024-03-29T01:36:24;99535.81;;;7.03;84.56
57668;BME280;43499;52.366;12.912;2024-03-29T01:37:25;99489.72;;;6.70;84.50
57668;BME280;43499;52.366;12.912;2024-03-29T01:38:26;99522.16;;;6.84;84.52
57668;BME280;43499;52.366;12.912;2024-03-29T01:39:27;99484.75;;;6.73;84.35
57668;BME280;43499;52.366;12.912;2024-03-29T01:40:32;99533.84;;;6.89;84.62
57668;BME280;43499;52.366;12.912;2024-03-29T01:41:33;99531.56;;;6.93;84.65
57668;BME280;43499;52.366;12.912;2024-03-29T01:42:34;99476.06;;;6.50;83.97
57668;BME280;43499;52.366;12.912;2024-03-29T01:43:35;99538.06;;;6.99;83.96
57668;BME280;43499;52.366;12.912;2024-03-29T01:44:36;99518.25;;;6.78;83.96
57668;BME280;43499;52.366;12.912;2024-03-29T01:45:41;99519.03;;;6.77;84.26
57668;BME280;43499;52.366;12.912;2024-03-29T01:46:42;99539.06;;;6.89;84.00
57668;BME280;43499;52.366;12.912;2024-03-29T01:47:46;99507.91;;;6.68;83.75
57668;BME280;43499;52.366;12.912;2024-03-29T01:48:51;99390.72;;;6.03;83.64
57668;BME280;43499;52.366;12.912;2024-03-29T01:49:53;99511.31;;;6.79;83.65
57668;BME280;43499;52.366;12.912;2024-03-29T01:50:57;99528.63;;;6.89;83.34
57668;BME280;43499;52.366;12.912;2024-03-29T01:51:58;99492.94;;;6.77;83.03
57668;BME280;43499;52.366;12.912;2024-03-29T01:53:00;99461.25;;;6.61;83.01
57668;BME280;43499;52.366;12.912;2024-03-29T01:54:01;99510.53;;;6.80;82.56
57668;BME280;43499;52.366;12.912;2024-03-29T01:55:02;99449.97;;;6.50;82.10
57668;BME280;43499;52.366;12.912;2024-03-29T01:56:04;99467.88;;;6.45;82.30
57668;BME280;43499;52.366;12.912;2024-03-29T01:57:05;99377.84;;;5.94;82.25
57668;BME280;43499;52.366;12.912;2024-03-29T01:58:07;99525.44;;;6.93;82.24
57668;BME280;43499;52.366;12.912;2024-03-29T01:59:14;99496.91;;;6.84;81.80
57668;BME280;43499;52.366;12.912;2024-03-29T02:00:19;99521.69;;;6.89;81.73
57668;BME280;43499;52.366;12.912;2024-03-29T02:01:20;99527.38;;;6.95;81.39
57668;BME280;43499;52.366;12.912;2024-03-29T02:02:22;99462.38;;;6.64;81.22
57668;BME280;43499;52.366;12.912;2024-03-29T02:03:23;99530.44;;;7.02;80.87
57668;BME280;43499;52.366;12.912;2024-03-29T02:04:25;99488.16;;;6.72;80.75
57668;BME280;43499;52.366;12.912;2024-03-29T02:05:26;99539.16;;;6.90;80.62
57668;BME280;43499;52.366;12.912;2024-03-29T02:06:28;99513.63;;;6.86;80.16
57668;BME280;43499;52.366;12.912;2024-03-29T02:07:29;99516.25;;;6.86;80.16
57668;BME280;43499;52.366;12.912;2024-03-29T02:08:30;99536.94;;;6.95;79.91
57668;BME280;43499;52.366;12.912;2024-03-29T02:09:31;99493.53;;;6.85;79.39
57668;BME280;43499;52.366;12.912;2024-03-29T02:10:34;99530.34;;;7.00;79.31
57668;BME280;43499;52.366;12.912;2024-03-29T02:11:35;99499.88;;;6.89;79.07
57668;BME280;43499;52.366;12.912;2024-03-29T02:12:36;99512.84;;;6.87;78.97
57668;BME280;43499;52.366;12.912;2024-03-29T02:13:37;99415.53;;;6.32;78.71
57668;BME280;43499;52.366;12.912;2024-03-29T02:14:40;99439.16;;;6.45;79.05
57668;BME280;43499;52.366;12.912;2024-03-29T02:15:43;99448.94;;;6.48;79.08
57668;BME280;43499;52.366;12.912;2024-03-29T02:16:44;99404.50;;;6.24;78.56
57668;BME280;43499;52.366;12.912;2024-03-29T02:17:45;99530.09;;;6.97;78.77
57668;BME280;43499;52.366;12.912;2024-03-29T02:18:46;99525.44;;;6.93;78.71
57668;BME280;43499;52.366;12.912;2024-03-29T02:19:47;99529.31;;;6.98;78.65
57668;BME280;43499;52.366;12.912;2024-03-29T02:20:48;99499.44;;;6.94;78.22
57668;BME280;43499;52.366;12.912;2024-03-29T02:21:51;99532.25;;;7.03;78.62
57668;BME280;43499;52.366;12.912;2024-03-29T02:22:59;99489.28;;;6.75;78.40
57668;BME280;43499;52.366;12.912;2024-03-29T02:24:10;99521.25;;;6.95;78.38
57668;BME280;43499;52.366;12.912;2024-03-29T02:25:13;99539.53;;;6.95;78.77
57668;BME280;43499;52.366;12.912;2024-03-29T02:26:14;99512.00;;;6.76;78.54
57668;BME280;43499;52.366;12.912;2024-03-29T02:27:16;99541.34;;;6.96;78.56
57668;BME280;43499;52.366;12.912;2024-03-29T02:28:17;99520.88;;;6.78;78.66
57668;BME280;43499;52.366;12.912;2024-03-29T02:29:18;99547.22;;;6.82;79.17
57668;BME280;43499;52.366;12.912;2024-03-29T02:30:19;99540.28;;;6.70;79.62
57668;BME280;43499;52.366;12.912;2024-03-29T02:31:20;99533.09;;;6.68;79.50
57668;BME280;43499;52.366;12.912;2024-03-29T02:32:21;99501.31;;;6.61;79.52
57668;BME280;43499;52.366;12.912;2024-03-29T02:33:22;99489.66;;;6.46;79.21
57668;BME280;43499;52.366;12.912;2024-03-29T02:34:23;99522.38;;;6.53;79.54
57668;BME280;43499;52.366;12.912;2024-03-29T02:35:25;99550.63;;;6.81;79.54
57668;BME280;43499;52.366;12.912;2024-03-29T02:36:26;99521.00;;;6.46;79.58
57668;BME280;43499;52.366;12.912;2024-03-29T02:37:27;99508.72;;;6.45;79.58
57668;BME280;43499;52.366;12.912;2024-03-29T02:38:28;99533.31;;;6.59;79.57
57668;BME280;43499;52.366;12.912;2024-03-29T02:39:29;99542.03;;;6.59;79.73
57668;BME280;43499;52.366;12.912;2024-03-29T02:40:30;99560.91;;;6.67;79.83
57668;BME280;43499;52.366;12.912;2024-03-29T02:41:31;99546.38;;;6.59;79.95
57668;BME280;43499;52.366;12.912;2024-03-29T02:42:32;99494.75;;;6.32;79.65
57668;BME280;43499;52.366;12.912;2024-03-29T02:43:33;99483.28;;;6.30;79.23
57668;BME280;43499;52.366;12.912;2024-03-29T02:44:34;99445.72;;;6.06;79.34
57668;BME280;43499;52.366;12.912;2024-03-29T02:45:35;99534.69;;;6.66;78.92
57668;BME280;43499;52.366;12.912;2024-03-29T02:46:36;99483.63;;;6.35;79.04
57668;BME280;43499;52.366;12.912;2024-03-29T02:47:38;99514.53;;;6.53;79.23
57668;BME280;43499;52.366;12.912;2024-03-29T02:48:39;99542.44;;;6.76;79.12
57668;BME280;43499;52.366;12.912;2024-03-29T02:49:40;99383.44;;;5.77;78.62
57668;BME280;43499;52.366;12.912;2024-03-29T02:50:41;99452.41;;;6.25;78.43
57668;BME280;43499;52.366;12.912;2024-03-29T02:51:42;99435.88;;;6.02;78.94
57668;BME280;43499;52.366;12.912;2024-03-29T02:52:43;99559.69;;;6.74;78.79
57668;BME280;43499;52.366;12.912;2024-03-29T02:53:44;99559.25;;;6.79;78.49
57668;BME280;43499;52.366;12.912;2024-03-29T02:54:45;99486.00;;;6.32;78.58
57668;BME280;43499;52.366;12.912;2024-03-29T02:55:46;99559.59;;;6.72;78.75
57668;BME280;43499;52.366;12.912;2024-03-29T02:56:47;99536.91;;;6.49;78.86
57668;BME280;43499;52.366;12.912;2024-03-29T02:57:48;99554.41;;;6.62;78.62
57668;BME280;43499;52.366;12.912;2024-03-29T02:58:49;99555.66;;;6.55;78.74
57668;BME280;43499;52.366;12.912;2024-03-29T02:59:50;99579.97;;;6.66;78.73
57668;BME280;43499;52.366;12.912;2024-03-29T03:00:51;99550.50;;;6.45;78.56
57668;BME280;43499;52.366;12.912;2024-03-29T03:01:52;99570.84;;;6.49;78.93
57668;BME280;43499;52.366;12.912;2024-03-29T03:02:53;99508.06;;;6.13;79.08
57668;BME280;43499;52.366;12.912;2024-03-29T03:03:54;99491.78;;;6.06;79.06
57668;BME280;43499;52.366;12.912;2024-03-29T03:04:55;99585.19;;;6.54;79.09
57668;BME280;43499;52.366;12.912;2024-03-29T03:05:56;99504.19;;;5.98;79.44
57668;BME280;43499;52.366;12.912;2024-03-29T03:06:57;99566.47;;;6.38;79.22
57668;BME280;43499;52.366;12.912;2024-03-29T03:08:18;99556.03;;;6.38;79.22
57668;BME280;43499;52.366;12.912;2024-03-29T03:09:38;99537.47;;;6.23;79.23
57668;BME280;43499;52.366;12.912;2024-03-29T03:10:57;99589.97;;;6.60;78.75
57668;BME280;43499;52.366;12.912;2024-03-29T03:12:01;99432.84;;;5.53;78.89
57668;BME280;43499;52.366;12.912;2024-03-29T03:13:02;99431.25;;;5.55;78.85
57668;BME280;43499;52.366;12.912;2024-03-29T03:14:03;99565.56;;;6.37;79.09
57668;BME280;43499;52.366;12.912;2024-03-29T03:15:04;99588.31;;;6.50;78.75
57668;BME280;43499;52.366;12.912;2024-03-29T03:16:06;99600.47;;;6.50;78.71
57668;BME280;43499;52.366;12.912;2024-03-29T03:17:07;99510.50;;;6.12;78.34
57668;BME280;43499;52.366;12.912;2024-03-29T03:18:08;99582.66;;;6.56;78.36
57668;BME280;43499;52.366;12.912;2024-03-29T03:19:09;99539.16;;;6.22;78.32
57668;BME280;43499;52.366;12.912;2024-03-29T03:20:10;99581.44;;;6.40;78.61
57668;BME280;43499;52.366;12.912;2024-03-29T03:21:14;99533.56;;;6.17;78.34
57668;BME280;43499;52.366;12.912;2024-03-29T03:22:15;99550.41;;;6.21;78.63
57668;BME280;43499;52.366;12.912;2024-03-29T03:23:16;99462.94;;;5.82;78.20
57668;BME280;43499;52.366;12.912;2024-03-29T03:24:17;99553.84;;;6.32;77.94
57668;BME280;43499;52.366;12.912;2024-03-29T03:25:18;99566.09;;;6.33;78.49
57668;BME280;43499;52.366;12.912;2024-03-29T03:26:19;99564.47;;;6.23;78.86
57668;BME280;43499;52.366;12.912;2024-03-29T03:27:20;99590.06;;;6.39;78.97
57668;BME280;43499;52.366;12.912;2024-03-29T03:28:21;99559.19;;;6.11;78.72
57668;BME280;43499;52.366;12.912;2024-03-29T03:29:22;99549.66;;;6.12;78.53
57668;BME280;43499;52.366;12.912;2024-03-29T03:30:24;99528.16;;;6.04;78.75
57668;BME280;43499;52.366;12.912;2024-03-29T03:31:27;99535.47;;;5.98;78.89
57668;BME280;43499;52.366;12.912;2024-03-29T03:32:28;99600.94;;;6.33;79.20
57668;BME280;43499;52.366;12.912;2024-03-29T03:33:29;99542.00;;;5.93;78.99
57668;BME280;43499;52.366;12.912;2024-03-29T03:34:30;99584.06;;;6.18;79.15
57668;BME280;43499;52.366;12.912;2024-03-29T03:35:31;99571.56;;;6.14;79.01
57668;BME280;43499;52.366;12.912;2024-03-29T03:36:32;99588.88;;;6.24;79.15
57668;BME280;43499;52.366;12.912;2024-03-29T03:37:33;99594.34;;;6.27;79.20
57668;BME280;43499;52.366;12.912;2024-03-29T03:38:34;99582.72;;;6.23;79.30
57668;BME280;43499;52.366;12.912;2024-03-29T03:39:37;99584.81;;;6.27;79.27
57668;BME280;43499;52.366;12.912;2024-03-29T03:40:39;99584.31;;;6.21;79.06
57668;BME280;43499;52.366;12.912;2024-03-29T03:41:40;99535.78;;;5.91;79.02
57668;BME280;43499;52.366;12.912;2024-03-29T03:42:41;99577.03;;;6.17;79.60
57668;BME280;43499;52.366;12.912;2024-03-29T03:43:42;99582.72;;;6.23;79.40
57668;BME280;43499;52.366;12.912;2024-03-29T03:44:43;99555.13;;;6.15;79.02
57668;BME280;43499;52.366;12.912;2024-03-29T03:45:44;99552.31;;;6.01;79.16
57668;BME280;43499;52.366;12.912;2024-03-29T03:46:45;99558.41;;;6.12;79.43
57668;BME280;43499;52.366;12.912;2024-03-29T03:47:46;99535.63;;;5.99;79.51
57668;BME280;43499;52.366;12.912;2024-03-29T03:48:47;99557.47;;;6.12;79.79
57668;BME280;43499;52.366;12.912;2024-03-29T03:49:48;99513.72;;;5.97;79.24
57668;BME280;43499;52.366;12.912;2024-03-29T03:50:49;99543.91;;;6.16;79.49
57668;BME280;43499;52.366;12.912;2024-03-29T03:51:50;99494.97;;;5.91;78.96
57668;BME280;43499;52.366;12.912;2024-03-29T03:52:51;99556.41;;;6.20;78.97
57668;BME280;43499;52.366;12.912;2024-03-29T03:53:53;99542.75;;;6.12;79.09
57668;BME280;43499;52.366;12.912;2024-03-29T03:54:54;99538.69;;;6.16;79.15
57668;BME280;43499;52.366;12.912;2024-03-29T03:55:55;99532.50;;;6.04;79.48
57668;BME280;43499;52.366;12.912;2024-03-29T03:56:56;99546.69;;;6.07;79.60
57668;BME280;43499;52.366;12.912;2024-03-29T03:57:57;99542.91;;;6.04;79.31
57668;BME280;43499;52.366;12.912;2024-03-29T03:58:58;99491.00;;;5.74;79.33
57668;BME280;43499;52.366;12.912;2024-03-29T03:59:59;99529.91;;;5.93;79.36
57668;BME280;43499;52.366;12.912;2024-03-29T04:01:06;99559.44;;;6.14;79.60
57668;BME280;43499;52.366;12.912;2024-03-29T04:02:07;99562.47;;;6.09;79.80
57668;BME280;43499;52.366;12.912;2024-03-29T04:03:08;99557.13;;;6.07;79.83
57668;BME280;43499;52.366;12.912;2024-03-29T04:04:09;99513.94;;;5.78;80.46
57668;BME280;43499;52.366;12.912;2024-03-29T04:05:10;99442.72;;;5.35;80.70
57668;BME280;43499;52.366;12.912;2024-03-29T04:06:11;99468.09;;;5.37;80.86
57668;BME280;43499;52.366;12.912;2024-03-29T04:07:12;99491.78;;;5.51;81.03
57668;BME280;43499;52.366;12.912;2024-03-29T04:08:13;99560.94;;;6.00;81.49
57668;BME280;43499;52.366;12.912;2024-03-29T04:09:16;99538.44;;;5.80;81.06
57668;BME280;43499;52.366;12.912;2024-03-29T04:10:17;99446.38;;;5.27;81.31
57668;BME280;43499;52.366;12.912;2024-03-29T04:11:18;99518.72;;;5.51;81.57
57668;BME280;43499;52.366;12.912;2024-03-29T04:12:19;99486.03;;;5.45;81.83
57668;BME280;43499;52.366;12.912;2024-03-29T04:13:20;99547.53;;;5.85;81.49
57668;BME280;43499;52.366;12.912;2024-03-29T04:14:21;99521.78;;;5.78;81.66
57668;BME280;43499;52.366;12.912;2024-03-29T04:15:22;99509.16;;;5.72;81.51
57668;BME280;43499;52.366;12.912;2024-03-29T04:16:23;99436.94;;;5.17;81.48
57668;BME280;43499;52.366;12.912;2024-03-29T04:17:24;99498.19;;;5.44;81.82
57668;BME280;43499;52.366;12.912;2024-03-29T04:18:25;99483.22;;;5.31;81.73
57668;BME280;43499;52.366;12.912;2024-03-29T04:19:26;99554.25;;;5.71;82.13
57668;BME280;43499;52.366;12.912;2024-03-29T04:20:27;99535.25;;;5.62;82.00
57668;BME280;43499;52.366;12.912;2024-03-29T04:21:28;99433.94;;;5.02;81.59
57668;BME280;43499;52.366;12.912;2024-03-29T04:22:30;99526.66;;;5.53;81.51
57668;BME280;43499;52.366;12.912;2024-03-29T04:23:31;99566.72;;;5.76;81.76
57668;BME280;43499;52.366;12.912;2024-03-29T04:24:32;99428.16;;;4.94;81.67
57668;BME280;43499;52.366;12.912;2024-03-29T04:25:33;99536.31;;;5.54;81.91
57668;BME280;43499;52.366;12.912;2024-03-29T04:26:34;99562.97;;;5.72;81.86
57668;BME280;43499;52.366;12.912;2024-03-29T04:27:35;99506.50;;;5.50;81.64
57668;BME280;43499;52.366;12.912;2024-03-29T04:28:36;99540.66;;;5.76;81.54
57668;BME280;43499;52.366;12.912;2024-03-29T04:29:37;99505.59;;;5.50;81.56
57668;BME280;43499;52.366;12.912;2024-03-29T04:30:38;99539.88;;;5.77;81.17
57668;BME280;43499;52.366;12.912;2024-03-29T04:31:39;99477.50;;;5.35;81.39
57668;BME280;43499;52.366;12.912;2024-03-29T04:32:41;99550.13;;;5.63;81.84
57668;BME280;43499;52.366;12.912;2024-03-29T04:33:42;99547.47;;;5.74;81.64
57668;BME280;43499;52.366;12.912;2024-03-29T04:34:46;99496.34;;;5.43;81.50
57668;BME280;43499;52.366;12.912;2024-03-29T04:35:54;99549.66;;;5.79;81.55
57668;BME280;43499;52.366;12.912;2024-03-29T04:36:55;99542.13;;;5.72;81.56
57668;BME280;43499;52.366;12.912;2024-03-29T04:37:56;99569.13;;;5.72;81.39
57668;BME280;43499;52.366;12.912;2024-03-29T04:38:57;99558.84;;;5.64;81.46
57668;BME280;43499;52.366;12.912;2024-03-29T04:39:58;99561.50;;;5.76;81.39
57668;BME280;43499;52.366;12.912;2024-03-29T04:40:59;99548.63;;;5.77;80.89
57668;BME280;43499;52.366;12.912;2024-03-29T04:42:00;99556.41;;;5.87;80.90
57668;BME280;43499;52.366;12.912;2024-03-29T04:43:01;99557.44;;;5.90;80.60
57668;BME280;43499;52.366;12.912;2024-03-29T04:44:03;99515.56;;;5.66;80.55
57668;BME280;43499;52.366;12.912;2024-03-29T04:45:05;99564.34;;;5.89;80.51
57668;BME280;43499;52.366;12.912;2024-03-29T04:46:11;99562.66;;;5.90;80.27
57668;BME280;43499;52.366;12.912;2024-03-29T04:47:12;99534.50;;;5.85;80.10
57668;BME280;43499;52.366;12.912;2024-03-29T04:48:13;99536.69;;;5.91;79.59
57668;BME280;43499;52.366;12.912;2024-03-29T04:49:14;99556.88;;;5.94;79.88
57668;BME280;43499;52.366;12.912;2024-03-29T04:50:18;99533.25;;;5.70;79.76
57668;BME280;43499;52.366;12.912;2024-03-29T04:51:19;99567.97;;;5.91;79.55
57668;BME280;43499;52.366;12.912;2024-03-29T04:52:20;99516.59;;;5.68;79.74
57668;BME280;43499;52.366;12.912;2024-03-29T04:53:23;99569.00;;;6.04;79.74
57668;BME280;43499;52.366;12.912;2024-03-29T04:54:24;99541.91;;;5.91;79.48
57668;BME280;43499;52.366;12.912;2024-03-29T04:55:25;99507.81;;;5.78;79.19
57668;BME280;43499;52.366;12.912;2024-03-29T04:56:26;99517.69;;;5.82;79.35
57668;BME280;43499;52.366;12.912;2024-03-29T04:57:28;99534.44;;;5.96;79.44
57668;BME280;43499;52.366;12.912;2024-03-29T04:58:29;99499.81;;;5.86;79.27
57668;BME280;43499;52.366;12.912;2024-03-29T04:59:31;99550.63;;;6.02;79.24
57668;BME280;43499;52.366;12.912;2024-03-29T05:00:32;99501.38;;;5.62;78.77
57668;BME280;43499;52.366;12.912;2024-03-29T05:01:33;99555.47;;;5.97;79.39
57668;BME280;43499;52.366;12.912;2024-03-29T05:02:36;99558.56;;;6.04;79.12
57668;BME280;43499;52.366;12.912;2024-03-29T05:03:38;99518.00;;;5.75;79.01
57668;BME280;43499;52.366;12.912;2024-03-29T05:04:39;99549.59;;;6.00;79.02
57668;BME280;43499;52.366;12.912;2024-03-29T05:05:40;99535.63;;;5.99;78.78
57668;BME280;43499;52.366;12.912;2024-03-29T05:06:41;99552.16;;;6.10;79.21
57668;BME280;43499;52.366;12.912;2024-03-29T05:07:42;99509.78;;;5.70;79.42
57668;BME280;43499;52.366;12.912;2024-03-29T05:08:43;99521.03;;;5.91;78.93
57668;BME280;43499;52.366;12.912;2024-03-29T05:09:44;99499.19;;;5.79;78.89
57668;BME280;43499;52.366;12.912;2024-03-29T05:10:46;99519.72;;;5.96;78.21
57668;BME280;43499;52.366;12.912;2024-03-29T05:11:47;99483.06;;;5.72;77.93
57668;BME280;43499;52.366;12.912;2024-03-29T05:12:48;99530.59;;;6.13;78.14
57668;BME280;43499;52.366;12.912;2024-03-29T05:13:49;99556.63;;;6.23;77.93
57668;BME280;43499;52.366;12.912;2024-03-29T05:14:50;99522.06;;;5.93;77.80
57668;BME280;43499;52.366;12.912;2024-03-29T05:15:51;99531.97;;;6.08;77.89
57668;BME280;43499;52.366;12.912;2024-03-29T05:16:53;99565.25;;;6.22;77.96
57668;BME280;43499;52.366;12.912;2024-03-29T05:17:54;99515.78;;;6.01;77.87
57668;BME280;43499;52.366;12.912;2024-03-29T05:18:55;99468.47;;;5.75;77.54
57668;BME280;43499;52.366;12.912;2024-03-29T05:19:56;99569.25;;;6.29;77.45
57668;BME280;43499;52.366;12.912;2024-03-29T05:20:57;99566.53;;;6.27;77.74
57668;BME280;43499;52.366;12.912;2024-03-29T05:21:58;99560.03;;;6.22;77.84
57668;BME280;43499;52.366;12.912;2024-03-29T05:22:59;99571.75;;;6.27;77.68
57668;BME280;43499;52.366;12.912;2024-03-29T05:24:00;99565.38;;;6.24;77.82
57668;BME280;43499;52.366;12.912;2024-03-29T05:25:01;99562.97;;;6.37;76.96
57668;BME280;43499;52.366;12.912;2024-03-29T05:26:06;99530.91;;;6.28;76.98